This is the latest recevied weather packets stored in our database for station/object YO6FNF-10. If no packets are shown the sender has not sent any weather packets the latest 10 day(s).
| Time | Temp. | Humidity | Pressure | Rain* | Wind** | Luminosity | Snow |
|---|---|---|---|---|---|---|---|
| 1778113049 | 11.11° C | 67% | 1017 hPa | - | - | - | - |
| 1778112149 | 11.11° C | 67% | 1017 hPa | - | - | - | - |
| 1778111249 | 11.67° C | 66% | 1016.9 hPa | - | - | - | - |
| 1778110349 | 11.67° C | 66% | 1017 hPa | - | - | - | - |
| 1778109448 | 12.22° C | 65% | 1016.9 hPa | - | - | - | - |
| 1778108548 | 12.78° C | 62% | 1016.8 hPa | - | - | - | - |
| 1778107648 | 13.33° C | 61% | 1016.7 hPa | - | - | - | - |
| 1778106748 | 13.33° C | 60% | 1016.7 hPa | - | - | - | - |
| 1778105848 | 13.89° C | 60% | 1016.8 hPa | - | - | - | - |
| 1778104948 | 13.89° C | 60% | 1016.7 hPa | - | - | - | - |
| 1778104047 | 14.44° C | 60% | 1016.6 hPa | - | - | - | - |
| 1778103147 | 14.44° C | 60% | 1016.5 hPa | - | - | - | - |
| 1778102247 | 14.44° C | 60% | 1016.4 hPa | - | - | - | - |
| 1778101347 | 14.44° C | 60% | 1016.3 hPa | - | - | - | - |
| 1778100447 | 14.44° C | 60% | 1016.4 hPa | - | - | - | - |
| 1778099547 | 15° C | 59% | 1016.2 hPa | - | - | - | - |
| 1778098646 | 15° C | 57% | 1016.2 hPa | - | - | - | - |
| 1778097746 | 15.56° C | 56% | 1016.1 hPa | - | - | - | - |
| 1778096846 | 181.67° C | 52% | - | - | - | - | - |
| 1778095946 | 16.67° C | 50% | 1016 hPa | - | - | - | - |
| 1778095046 | 17.78° C | 49% | 1015.8 hPa | - | - | - | - |
| 1778094145 | 17.78° C | 49% | 1015.8 hPa | - | - | - | - |
| 1778093245 | 17.78° C | 49% | 1015.7 hPa | - | - | - | - |
| 1778092345 | 18.33° C | 47% | 1015.4 hPa | - | - | - | - |
| 1778091445 | 17.78° C | 49% | 1015.4 hPa | - | - | - | - |
* Rain since midnight (hover to see other rain measurements)
** Current wind speed in m/s (hover to see current wind gust speed)